Nissan Maru — JG5485 — position and weather

sailwx.info

Track history (hours):
 
Tides and Currents Weather Stations Pressure Air Temp Water Temp Dewpoint Dewpoint Depression Visibility Wind Speed Wind Dir Waves Ship Positions

Nissan Maru

Last reported at 2015-Jul-06 17:33 UTC. Time now 2015-Jul-06 17:54 UTC.
Position N 35°29' E 139°44'.

Length 108 m; draft 7.2 m.

Type: Cargo ship. MMSI: 431400593.

Date/timePositionNaut miles runAvg speedWind from/ knotsBaromVisibWave heightAir tempDewpointWater temp
2015-Jul-06 17:33N 35°29' E 139°44'0 0.0
2015-Jul-06 16:33N 35°29' E 139°44'0 0.0
2015-Jul-06 15:33N 35°29' E 139°44'0 0.0
2015-Jul-06 14:33N 35°29' E 139°44'0 0.0
2015-Jul-06 13:33N 35°29' E 139°44'0 0.0
2015-Jul-06 12:33N 35°29' E 139°44'0 0.0
2015-Jul-06 11:33N 35°29' E 139°44'0 0.0
2015-Jul-06 10:33N 35°29' E 139°44'0 0.0
2015-Jul-06 09:33N 35°29' E 139°44'0 0.2
2015-Jul-06 08:33N 35°29' E 139°44'6 5.7
2015-Jul-06 07:33N 35°23' E 139°45'0 0.1
2015-Jul-06 06:32N 35°23' E 139°45'0 0.0
2015-Jul-06 05:32N 35°23' E 139°45'0 0.0
2015-Jul-06 04:32N 35°23' E 139°45'0 0.0
2015-Jul-06 03:32N 35°23' E 139°45'0 0.0
2015-Jul-06 02:32N 35°23' E 139°45'0 0.0
2015-Jul-06 01:32N 35°23' E 139°45'0 0.0
2015-Jul-06 00:32N 35°23' E 139°45'6 5.9
2015-Jul-05 23:33N 35°18' E 139°45'1110.7
2015-Jul-05 22:33N 35°07' E 139°45'  
2015-Jul-03 06:29N 34°35' E 134°53'8 8.2
2015-Jul-03 05:33N 34°37' E 135°02'9 8.6
2015-Jul-03 04:33N 34°28' E 135°03'1211.2
2015-Jul-03 03:28N 34°16' E 134°59'1111.8
2015-Jul-03 02:33N 34°06' E 135°00'225 9.3
2015-Jul-02 02:29N 34°57' E 139°26'1011.0
2015-Jul-02 01:33N 35°03' E 139°36'1111.2
2015-Jul-02 00:33N 35°11' E 139°46'1212.2
2015-Jul-01 23:33N 35°23' E 139°42'1312.6
2015-Jul-01 22:33N 35°31' E 139°53'4 4.1
2015-Jul-01 21:28N 35°35' E 139°56'0 0.0
2015-Jul-01 20:28N 35°35' E 139°56'0 0.0
2015-Jul-01 19:31N 35°35' E 139°56'0 0.0
2015-Jul-01 18:31N 35°35' E 139°56'0 0.0
2015-Jul-01 17:28N 35°35' E 139°56'0 0.0
2015-Jul-01 16:31N 35°35' E 139°56'0 0.0
2015-Jul-01 15:28N 35°35' E 139°56'0 0.0
2015-Jul-01 14:31N 35°35' E 139°56'0 0.0
2015-Jul-01 13:33N 35°35' E 139°56'0 0.0
2015-Jul-01 12:33N 35°35' E 139°56'0 0.0
2015-Jul-01 11:30N 35°35' E 139°56'0 0.0
2015-Jul-01 10:33N 35°35' E 139°56'0 0.1
2015-Jul-01 09:33N 35°35' E 139°56'0 0.0
2015-Jul-01 08:34N 35°35' E 139°56'0 0.0
2015-Jul-01 07:33N 35°35' E 139°56'0 0.0
2015-Jul-01 06:33N 35°35' E 139°56'0 0.0
2015-Jul-01 05:33N 35°35' E 139°56'0 0.0
2015-Jul-01 04:33N 35°35' E 139°56'0 0.0
2015-Jul-01 03:34N 35°35' E 139°56'5 5.0
2015-Jul-01 02:33N 35°34' E 140°02'4 3.9
2015-Jul-01 01:33N 35°35' E 140°07'0 0.0
2015-Jul-01 00:28N 35°35' E 140°07'0 0.0
2015-Jun-30 23:28N 35°35' E 140°07'0 0.0
2015-Jun-30 22:10N 35°35' E 140°07'0 0.0
2015-Jun-30 21:16N 35°35' E 140°07'0 0.0
2015-Jun-30 20:34N 35°35' E 140°07'0 0.0
2015-Jun-30 19:28N 35°35' E 140°07'0 0.0
2015-Jun-30 18:28N 35°35' E 140°07'0 0.0
2015-Jun-30 17:28N 35°35' E 140°07'0 0.0
2015-Jun-30 16:22N 35°35' E 140°07'0 0.0
2015-Jun-30 15:28N 35°35' E 140°07'0 0.0
2015-Jun-30 14:16N 35°35' E 140°07'0 0.0
2015-Jun-30 13:16N 35°35' E 140°07'0 0.0
2015-Jun-30 12:10N 35°35' E 140°07'0 0.0
2015-Jun-30 11:28N 35°35' E 140°07'0 0.0
2015-Jun-30 10:16N 35°35' E 140°07'0 0.0
2015-Jun-30 09:22N 35°35' E 140°07'0 0.0
2015-Jun-30 07:34N 35°35' E 140°07'0 0.0
2015-Jun-30 06:34N 35°35' E 140°07'0 0.0
2015-Jun-30 05:34N 35°35' E 140°07'0 0.0
2015-Jun-30 04:34N 35°35' E 140°07'0 0.0
2015-Jun-30 03:34N 35°35' E 140°07'0 0.0
2015-Jun-30 02:28N 35°35' E 140°07'0 0.0
2015-Jun-30 01:34N 35°35' E 140°07'0 0.0
2015-Jun-30 00:34N 35°35' E 140°07'0 0.0
2015-Jun-29 23:34N 35°35' E 140°07'0 0.0
2015-Jun-29 22:34N 35°35' E 140°07'0 0.2
2015-Jun-29 21:22N 35°35' E 140°07'0 0.0
2015-Jun-29 18:28N 35°35' E 140°07'0 0.0
2015-Jun-29 17:34N 35°35' E 140°07'0 0.0
2015-Jun-29 16:27N 35°35' E 140°07'0 0.0
2015-Jun-29 15:33N 35°35' E 140°07'0 0.0
2015-Jun-29 14:33N 35°35' E 140°07'0 0.0
2015-Jun-29 13:15N 35°35' E 140°07'0 0.0
2015-Jun-29 12:21N 35°35' E 140°07'0 0.0
2015-Jun-29 10:21N 35°35' E 140°07'0 0.0
2015-Jun-29 09:33N 35°35' E 140°07'0 0.0
2015-Jun-29 08:21N 35°35' E 140°07'0 0.0
2015-Jun-29 07:27N 35°35' E 140°07'0 0.0
2015-Jun-29 06:33N 35°35' E 140°07'0 0.0
2015-Jun-29 05:27N 35°35' E 140°07'0 0.0
2015-Jun-29 04:21N 35°35' E 140°07'0 0.0
2015-Jun-29 03:33N 35°35' E 140°07'1 1.3
2015-Jun-29 02:34N 35°35' E 140°05'7 6.8
2015-Jun-29 01:34N 35°33' E 139°57'9 9.0
2015-Jun-29 00:34N 35°29' E 139°48'3 2.9
2015-Jun-28 23:34N 35°29' E 139°44'0 0.0
2015-Jun-28 22:33N 35°29' E 139°44'0 0.0
2015-Jun-28 21:33N 35°29' E 139°44'0 0.0
2015-Jun-28 20:33N 35°29' E 139°44'0 0.0
2015-Jun-28 19:33N 35°29' E 139°44'0 0.0
2015-Jun-28 18:33N 35°29' E 139°44'0 0.0
2015-Jun-28 17:32N 35°29' E 139°44'0 0.0
2015-Jun-28 16:32N 35°29' E 139°44'0 0.0
2015-Jun-28 15:33N 35°29' E 139°44'0 0.0
2015-Jun-28 14:33N 35°29' E 139°44'0 0.0
2015-Jun-28 13:33N 35°29' E 139°44'0 0.0
2015-Jun-28 12:32N 35°29' E 139°44'0 0.0
2015-Jun-28 11:33N 35°29' E 139°44'0 0.0
2015-Jun-28 10:32N 35°29' E 139°44'0 0.0
2015-Jun-28 09:32N 35°29' E 139°44'0 0.0
2015-Jun-28 08:32N 35°29' E 139°44'0 0.0
2015-Jun-28 07:29N 35°29' E 139°44'0 0.0
2015-Jun-28 06:32N 35°29' E 139°44'0 0.0
2015-Jun-28 05:33N 35°29' E 139°44'0 0.0
2015-Jun-28 04:32N 35°29' E 139°44'0 0.0
2015-Jun-28 03:32N 35°29' E 139°44'0 0.0
2015-Jun-28 02:32N 35°29' E 139°44'0 0.0
2015-Jun-28 01:32N 35°29' E 139°44'0 0.0
2015-Jun-28 00:32N 35°29' E 139°44'0 0.0
2015-Jun-27 23:32N 35°29' E 139°44'0 0.0
2015-Jun-27 22:32N 35°29' E 139°44'0 0.0
2015-Jun-27 21:32N 35°29' E 139°44'0 0.0
2015-Jun-27 20:32N 35°29' E 139°44'0 0.0
2015-Jun-27 19:32N 35°29' E 139°44'0 0.0
2015-Jun-27 18:29N 35°29' E 139°44'0 0.0
2015-Jun-27 17:32N 35°29' E 139°44'0 0.0
2015-Jun-27 16:32N 35°29' E 139°44'0 0.0
2015-Jun-27 15:32N 35°29' E 139°44'0 0.0
2015-Jun-27 14:32N 35°29' E 139°44'0 0.0
2015-Jun-27 13:32N 35°29' E 139°44'0 0.0
2015-Jun-27 12:32N 35°29' E 139°44'0 0.0
2015-Jun-27 11:32N 35°29' E 139°44'0 0.0
2015-Jun-27 10:32N 35°29' E 139°44'0 0.0
2015-Jun-27 09:29N 35°29' E 139°44'0 0.0
2015-Jun-27 08:26N 35°29' E 139°44'0 0.0
2015-Jun-27 07:32N 35°29' E 139°44'0 0.0
2015-Jun-27 06:29N 35°29' E 139°44'0 0.0
2015-Jun-27 05:32N 35°29' E 139°44'0 0.0
2015-Jun-27 04:32N 35°29' E 139°44'0 0.0
2015-Jun-27 03:32N 35°29' E 139°44'0 0.0
2015-Jun-27 02:32N 35°29' E 139°44'0 0.0
2015-Jun-27 01:32N 35°29' E 139°44'0 0.0
2015-Jun-27 00:32N 35°29' E 139°44'0 0.0
2015-Jun-26 23:32N 35°29' E 139°44'0 0.0
2015-Jun-26 22:32N 35°29' E 139°44'0 0.0
2015-Jun-26 21:29N 35°29' E 139°44'0 0.4
2015-Jun-26 20:33N 35°29' E 139°45'5 4.8
2015-Jun-26 19:33N 35°31' E 139°50'0 0.0
2015-Jun-26 18:30N 35°31' E 139°50'  
Track history (hours):
 
Tides and Currents Weather Stations Pressure Air Temp Water Temp Dewpoint Dewpoint Depression Visibility Wind Speed Wind Dir Waves Ship Positions

Nissan Maru

Last reported at 2015-Jul-06 17:33 UTC. Time now 2015-Jul-06 17:54 UTC.
Position N 35°29' E 139°44'.

Length 108 m; draft 7.2 m.

Type: Cargo ship. MMSI: 431400593.

Date/timePositionNaut miles runAvg speedWind from/ knotsBaromVisibWave heightAir tempDewpointWater temp
2015-Jul-06 17:33N 35°29' E 139°44'0 0.0
2015-Jul-06 16:33N 35°29' E 139°44'0 0.0
2015-Jul-06 15:33N 35°29' E 139°44'0 0.0
2015-Jul-06 14:33N 35°29' E 139°44'0 0.0
2015-Jul-06 13:33N 35°29' E 139°44'0 0.0
2015-Jul-06 12:33N 35°29' E 139°44'0 0.0
2015-Jul-06 11:33N 35°29' E 139°44'0 0.0
2015-Jul-06 10:33N 35°29' E 139°44'0 0.0
2015-Jul-06 09:33N 35°29' E 139°44'0 0.2
2015-Jul-06 08:33N 35°29' E 139°44'6 5.7
2015-Jul-06 07:33N 35°23' E 139°45'0 0.1
2015-Jul-06 06:32N 35°23' E 139°45'0 0.0
2015-Jul-06 05:32N 35°23' E 139°45'0 0.0
2015-Jul-06 04:32N 35°23' E 139°45'0 0.0
2015-Jul-06 03:32N 35°23' E 139°45'0 0.0
2015-Jul-06 02:32N 35°23' E 139°45'0 0.0
2015-Jul-06 01:32N 35°23' E 139°45'0 0.0
2015-Jul-06 00:32N 35°23' E 139°45'6 5.9
2015-Jul-05 23:33N 35°18' E 139°45'1110.7
2015-Jul-05 22:33N 35°07' E 139°45'  
2015-Jul-03 06:29N 34°35' E 134°53'8 8.2
2015-Jul-03 05:33N 34°37' E 135°02'9 8.6
2015-Jul-03 04:33N 34°28' E 135°03'1211.2
2015-Jul-03 03:28N 34°16' E 134°59'1111.8
2015-Jul-03 02:33N 34°06' E 135°00'225 9.3
2015-Jul-02 02:29N 34°57' E 139°26'1011.0
2015-Jul-02 01:33N 35°03' E 139°36'1111.2
2015-Jul-02 00:33N 35°11' E 139°46'1212.2
2015-Jul-01 23:33N 35°23' E 139°42'1312.6
2015-Jul-01 22:33N 35°31' E 139°53'4 4.1
2015-Jul-01 21:28N 35°35' E 139°56'0 0.0
2015-Jul-01 20:28N 35°35' E 139°56'0 0.0
2015-Jul-01 19:31N 35°35' E 139°56'0 0.0
2015-Jul-01 18:31N 35°35' E 139°56'0 0.0
2015-Jul-01 17:28N 35°35' E 139°56'0 0.0
2015-Jul-01 16:31N 35°35' E 139°56'0 0.0
2015-Jul-01 15:28N 35°35' E 139°56'0 0.0
2015-Jul-01 14:31N 35°35' E 139°56'0 0.0
2015-Jul-01 13:33N 35°35' E 139°56'0 0.0
2015-Jul-01 12:33N 35°35' E 139°56'0 0.0
2015-Jul-01 11:30N 35°35' E 139°56'0 0.0
2015-Jul-01 10:33N 35°35' E 139°56'0 0.1
2015-Jul-01 09:33N 35°35' E 139°56'0 0.0
2015-Jul-01 08:34N 35°35' E 139°56'0 0.0
2015-Jul-01 07:33N 35°35' E 139°56'0 0.0
2015-Jul-01 06:33N 35°35' E 139°56'0 0.0
2015-Jul-01 05:33N 35°35' E 139°56'0 0.0
2015-Jul-01 04:33N 35°35' E 139°56'0 0.0
2015-Jul-01 03:34N 35°35' E 139°56'5 5.0
2015-Jul-01 02:33N 35°34' E 140°02'4 3.9
2015-Jul-01 01:33N 35°35' E 140°07'0 0.0
2015-Jul-01 00:28N 35°35' E 140°07'0 0.0
2015-Jun-30 23:28N 35°35' E 140°07'0 0.0
2015-Jun-30 22:10N 35°35' E 140°07'0 0.0
2015-Jun-30 21:16N 35°35' E 140°07'0 0.0
2015-Jun-30 20:34N 35°35' E 140°07'0 0.0
2015-Jun-30 19:28N 35°35' E 140°07'0 0.0
2015-Jun-30 18:28N 35°35' E 140°07'0 0.0
2015-Jun-30 17:28N 35°35' E 140°07'0 0.0
2015-Jun-30 16:22N 35°35' E 140°07'0 0.0
2015-Jun-30 15:28N 35°35' E 140°07'0 0.0
2015-Jun-30 14:16N 35°35' E 140°07'0 0.0
2015-Jun-30 13:16N 35°35' E 140°07'0 0.0
2015-Jun-30 12:10N 35°35' E 140°07'0 0.0
2015-Jun-30 11:28N 35°35' E 140°07'0 0.0
2015-Jun-30 10:16N 35°35' E 140°07'0 0.0
2015-Jun-30 09:22N 35°35' E 140°07'0 0.0
2015-Jun-30 07:34N 35°35' E 140°07'0 0.0
2015-Jun-30 06:34N 35°35' E 140°07'0 0.0
2015-Jun-30 05:34N 35°35' E 140°07'0 0.0
2015-Jun-30 04:34N 35°35' E 140°07'0 0.0
2015-Jun-30 03:34N 35°35' E 140°07'0 0.0
2015-Jun-30 02:28N 35°35' E 140°07'0 0.0
2015-Jun-30 01:34N 35°35' E 140°07'0 0.0
2015-Jun-30 00:34N 35°35' E 140°07'0 0.0
2015-Jun-29 23:34N 35°35' E 140°07'0 0.0
2015-Jun-29 22:34N 35°35' E 140°07'0 0.2
2015-Jun-29 21:22N 35°35' E 140°07'0 0.0
2015-Jun-29 18:28N 35°35' E 140°07'0 0.0
2015-Jun-29 17:34N 35°35' E 140°07'0 0.0
2015-Jun-29 16:27N 35°35' E 140°07'0 0.0
2015-Jun-29 15:33N 35°35' E 140°07'0 0.0
2015-Jun-29 14:33N 35°35' E 140°07'0 0.0
2015-Jun-29 13:15N 35°35' E 140°07'0 0.0
2015-Jun-29 12:21N 35°35' E 140°07'0 0.0
2015-Jun-29 10:21N 35°35' E 140°07'0 0.0
2015-Jun-29 09:33N 35°35' E 140°07'0 0.0
2015-Jun-29 08:21N 35°35' E 140°07'0 0.0
2015-Jun-29 07:27N 35°35' E 140°07'0 0.0
2015-Jun-29 06:33N 35°35' E 140°07'0 0.0
2015-Jun-29 05:27N 35°35' E 140°07'0 0.0
2015-Jun-29 04:21N 35°35' E 140°07'0 0.0
2015-Jun-29 03:33N 35°35' E 140°07'1 1.3
2015-Jun-29 02:34N 35°35' E 140°05'7 6.8
2015-Jun-29 01:34N 35°33' E 139°57'9 9.0
2015-Jun-29 00:34N 35°29' E 139°48'3 2.9
2015-Jun-28 23:34N 35°29' E 139°44'0 0.0
2015-Jun-28 22:33N 35°29' E 139°44'0 0.0
2015-Jun-28 21:33N 35°29' E 139°44'0 0.0
2015-Jun-28 20:33N 35°29' E 139°44'0 0.0
2015-Jun-28 19:33N 35°29' E 139°44'0 0.0
2015-Jun-28 18:33N 35°29' E 139°44'0 0.0
2015-Jun-28 17:32N 35°29' E 139°44'0 0.0
2015-Jun-28 16:32N 35°29' E 139°44'0 0.0
2015-Jun-28 15:33N 35°29' E 139°44'0 0.0
2015-Jun-28 14:33N 35°29' E 139°44'0 0.0
2015-Jun-28 13:33N 35°29' E 139°44'0 0.0
2015-Jun-28 12:32N 35°29' E 139°44'0 0.0
2015-Jun-28 11:33N 35°29' E 139°44'0 0.0
2015-Jun-28 10:32N 35°29' E 139°44'0 0.0
2015-Jun-28 09:32N 35°29' E 139°44'0 0.0
2015-Jun-28 08:32N 35°29' E 139°44'0 0.0
2015-Jun-28 07:29N 35°29' E 139°44'0 0.0
2015-Jun-28 06:32N 35°29' E 139°44'0 0.0
2015-Jun-28 05:33N 35°29' E 139°44'0 0.0
2015-Jun-28 04:32N 35°29' E 139°44'0 0.0
2015-Jun-28 03:32N 35°29' E 139°44'0 0.0
2015-Jun-28 02:32N 35°29' E 139°44'0 0.0
2015-Jun-28 01:32N 35°29' E 139°44'0 0.0
2015-Jun-28 00:32N 35°29' E 139°44'0 0.0
2015-Jun-27 23:32N 35°29' E 139°44'0 0.0
2015-Jun-27 22:32N 35°29' E 139°44'0 0.0
2015-Jun-27 21:32N 35°29' E 139°44'0 0.0
2015-Jun-27 20:32N 35°29' E 139°44'0 0.0
2015-Jun-27 19:32N 35°29' E 139°44'0 0.0
2015-Jun-27 18:29N 35°29' E 139°44'0 0.0
2015-Jun-27 17:32N 35°29' E 139°44'0 0.0
2015-Jun-27 16:32N 35°29' E 139°44'0 0.0
2015-Jun-27 15:32N 35°29' E 139°44'0 0.0
2015-Jun-27 14:32N 35°29' E 139°44'0 0.0
2015-Jun-27 13:32N 35°29' E 139°44'0 0.0
2015-Jun-27 12:32N 35°29' E 139°44'0 0.0
2015-Jun-27 11:32N 35°29' E 139°44'0 0.0
2015-Jun-27 10:32N 35°29' E 139°44'0 0.0
2015-Jun-27 09:29N 35°29' E 139°44'0 0.0
2015-Jun-27 08:26N 35°29' E 139°44'0 0.0
2015-Jun-27 07:32N 35°29' E 139°44'0 0.0
2015-Jun-27 06:29N 35°29' E 139°44'0 0.0
2015-Jun-27 05:32N 35°29' E 139°44'0 0.0
2015-Jun-27 04:32N 35°29' E 139°44'0 0.0
2015-Jun-27 03:32N 35°29' E 139°44'0 0.0
2015-Jun-27 02:32N 35°29' E 139°44'0 0.0
2015-Jun-27 01:32N 35°29' E 139°44'0 0.0
2015-Jun-27 00:32N 35°29' E 139°44'0 0.0
2015-Jun-26 23:32N 35°29' E 139°44'0 0.0
2015-Jun-26 22:32N 35°29' E 139°44'0 0.0
2015-Jun-26 21:29N 35°29' E 139°44'0 0.4
2015-Jun-26 20:33N 35°29' E 139°45'5 4.8
2015-Jun-26 19:33N 35°31' E 139°50'0 0.0
2015-Jun-26 18:30N 35°31' E 139°50'  

Dump ship's entire track history